Impacts TAF Board INFO
FOR SITUATIONAL AWARENESS. NOT TO BE USED FOR FLIGHT PLANNING PURPOSES.
IDs:

KBWI - Baltimore-Washington, MD, US

Issued at 0243 UTC 23 May 2018
Updated at 0320 UTC 23 May 2018
Potential Impact None Slight Moderate High
Time<<24/04Z 24/05Z 24/06Z 24/07Z 24/08Z 24/09Z 24/10Z 24/11Z 24/12Z 24/13Z 24/14Z 24/15Z 24/16Z
Type PRVL PRVL
VIS >6 >6
CIG -- --
Cover SCT SCT
FltCat VFR VFR
WX -- --
WDir 330 330
WSpd 10 10
WGst 16 16

Raw TAF
KBWI 230243Z 2303/2406 VRB03KT 4SM BR OVC008
  FM230700 VRB03KT 2SM BR BKN008 OVC015
  FM231300 30007KT P6SM BKN035
  FM231700 33010G16KT P6SM SCT040


METAR Board
Radar Display
Forecast Discussion

FOR SITUATIONAL AWARENESS. NOT TO BE USED FOR FLIGHT PLANNING PURPOSES.